sensor_id;sensor_type;location;lat;lon;timestamp;pressure;altitude;pressure_sealevel;temperature;humidity
54936;BME280;40838;50.676;7.838;2022-11-30T00:02:07;98787.44;;;6.30;nan
54936;BME280;40838;50.676;7.838;2022-11-30T00:04:34;98786.84;;;6.28;nan
54936;BME280;40838;50.676;7.838;2022-11-30T00:07:00;98785.22;;;6.27;nan
54936;BME280;40838;50.676;7.838;2022-11-30T00:09:27;98786.59;;;6.09;nan
54936;BME280;40838;50.676;7.838;2022-11-30T00:11:54;98784.34;;;6.00;nan
54936;BME280;40838;50.676;7.838;2022-11-30T00:14:21;98784.72;;;5.97;nan
54936;BME280;40838;50.676;7.838;2022-11-30T00:16:50;98777.06;;;5.95;nan
54936;BME280;40838;50.676;7.838;2022-11-30T00:19:17;98790.22;;;6.08;nan
54936;BME280;40838;50.676;7.838;2022-11-30T00:21:44;98785.97;;;6.07;nan
54936;BME280;40838;50.676;7.838;2022-11-30T00:24:11;98789.63;;;6.06;nan
54936;BME280;40838;50.676;7.838;2022-11-30T00:26:38;98785.56;;;5.97;nan
54936;BME280;40838;50.676;7.838;2022-11-30T00:29:05;98784.16;;;6.08;nan
54936;BME280;40838;50.676;7.838;2022-11-30T00:31:31;98778.50;;;6.04;nan
54936;BME280;40838;50.676;7.838;2022-11-30T00:34:00;98783.75;;;6.04;nan
54936;BME280;40838;50.676;7.838;2022-11-30T00:36:27;98778.50;;;6.04;nan
54936;BME280;40838;50.676;7.838;2022-11-30T00:38:54;98773.66;;;5.95;nan
54936;BME280;40838;50.676;7.838;2022-11-30T00:41:21;98778.91;;;6.01;nan
54936;BME280;40838;50.676;7.838;2022-11-30T00:43:48;98780.75;;;6.07;nan
54936;BME280;40838;50.676;7.838;2022-11-30T00:46:15;98768.44;;;6.01;nan
54936;BME280;40838;50.676;7.838;2022-11-30T00:48:41;98771.09;;;6.15;nan
54936;BME280;40838;50.676;7.838;2022-11-30T00:51:10;98772.88;;;6.14;nan
54936;BME280;40838;50.676;7.838;2022-11-30T00:53:38;98767.44;;;6.09;nan
54936;BME280;40838;50.676;7.838;2022-11-30T00:56:06;98763.41;;;6.06;nan
54936;BME280;40838;50.676;7.838;2022-11-30T00:58:33;98769.84;;;6.04;nan
54936;BME280;40838;50.676;7.838;2022-11-30T01:01:00;98765.03;;;6.07;nan
54936;BME280;40838;50.676;7.838;2022-11-30T01:03:28;98760.00;;;6.06;nan
54936;BME280;40838;50.676;7.838;2022-11-30T01:06:00;98763.81;;;6.03;nan
54936;BME280;40838;50.676;7.838;2022-11-30T01:08:29;98758.94;;;5.94;nan
54936;BME280;40838;50.676;7.838;2022-11-30T01:11:02;98770.25;;;6.01;nan
54936;BME280;40838;50.676;7.838;2022-11-30T01:13:29;98769.28;;;6.22;nan
54936;BME280;40838;50.676;7.838;2022-11-30T01:15:56;98767.28;;;6.24;nan
54936;BME280;40838;50.676;7.838;2022-11-30T01:18:23;98768.66;;;6.13;nan
54936;BME280;40838;50.676;7.838;2022-11-30T01:20:50;98765.06;;;6.21;nan
54936;BME280;40838;50.676;7.838;2022-11-30T01:23:17;98776.97;;;6.23;nan
54936;BME280;40838;50.676;7.838;2022-11-30T01:25:53;98777.53;;;6.12;nan
54936;BME280;40838;50.676;7.838;2022-11-30T01:28:22;98777.31;;;6.07;nan
54936;BME280;40838;50.676;7.838;2022-11-30T01:30:56;98772.31;;;6.19;nan
54936;BME280;40838;50.676;7.838;2022-11-30T01:33:24;98779.34;;;6.11;nan
54936;BME280;40838;50.676;7.838;2022-11-30T01:35:58;98776.91;;;6.03;nan
54936;BME280;40838;50.676;7.838;2022-11-30T01:38:25;98767.63;;;6.01;nan
54936;BME280;40838;50.676;7.838;2022-11-30T01:40:53;98782.38;;;6.08;nan
54936;BME280;40838;50.676;7.838;2022-11-30T01:43:20;98779.13;;;6.06;nan
54936;BME280;40838;50.676;7.838;2022-11-30T01:45:47;98786.38;;;6.04;nan
54936;BME280;40838;50.676;7.838;2022-11-30T01:48:15;98785.41;;;6.12;nan
54936;BME280;40838;50.676;7.838;2022-11-30T01:50:43;98784.38;;;6.06;nan
54936;BME280;40838;50.676;7.838;2022-11-30T01:53:11;98782.34;;;6.02;nan
54936;BME280;40838;50.676;7.838;2022-11-30T01:55:40;98783.75;;;6.11;nan
54936;BME280;40838;50.676;7.838;2022-11-30T01:58:11;98783.75;;;6.04;nan
54936;BME280;40838;50.676;7.838;2022-11-30T02:00:43;98787.97;;;6.05;nan
54936;BME280;40838;50.676;7.838;2022-11-30T02:03:15;98789.22;;;6.09;nan
54936;BME280;40838;50.676;7.838;2022-11-30T02:05:47;98786.19;;;6.06;nan
54936;BME280;40838;50.676;7.838;2022-11-30T02:08:14;98777.94;;;6.09;nan
54936;BME280;40838;50.676;7.838;2022-11-30T02:10:44;98783.97;;;6.16;nan
54936;BME280;40838;50.676;7.838;2022-11-30T02:13:32;98786.03;;;6.21;nan
54936;BME280;40838;50.676;7.838;2022-11-30T02:16:06;98788.66;;;6.21;nan
54936;BME280;40838;50.676;7.838;2022-11-30T02:18:44;98784.38;;;6.20;nan
54936;BME280;40838;50.676;7.838;2022-11-30T02:21:14;98791.09;;;6.35;nan
54936;BME280;40838;50.676;7.838;2022-11-30T02:26:54;98777.38;;;6.33;nan
54936;BME280;40838;50.676;7.838;2022-11-30T02:29:27;98772.34;;;6.32;nan
54936;BME280;40838;50.676;7.838;2022-11-30T02:32:02;98769.69;;;6.19;nan
54936;BME280;40838;50.676;7.838;2022-11-30T02:34:35;98776.75;;;6.25;nan
54936;BME280;40838;50.676;7.838;2022-11-30T02:37:04;98777.75;;;6.24;nan
54936;BME280;40838;50.676;7.838;2022-11-30T02:39:32;98778.75;;;6.23;nan
54936;BME280;40838;50.676;7.838;2022-11-30T02:41:59;98782.38;;;6.22;nan
54936;BME280;40838;50.676;7.838;2022-11-30T02:44:27;98774.91;;;6.12;nan
54936;BME280;40838;50.676;7.838;2022-11-30T02:47:13;98773.91;;;6.13;nan
54936;BME280;40838;50.676;7.838;2022-11-30T02:52:35;98776.69;;;6.05;nan
54936;BME280;40838;50.676;7.838;2022-11-30T02:55:04;98771.50;;;6.11;nan
54936;BME280;40838;50.676;7.838;2022-11-30T02:57:32;98773.91;;;6.06;nan
54936;BME280;40838;50.676;7.838;2022-11-30T03:00:03;98783.19;;;6.09;nan
54936;BME280;40838;50.676;7.838;2022-11-30T03:02:31;98773.47;;;6.03;nan
54936;BME280;40838;50.676;7.838;2022-11-30T03:04:58;98779.94;;;6.00;nan
54936;BME280;40838;50.676;7.838;2022-11-30T03:07:28;98786.22;;;6.19;nan
54936;BME280;40838;50.676;7.838;2022-11-30T03:09:56;98778.13;;;6.07;nan
54936;BME280;40838;50.676;7.838;2022-11-30T03:12:22;98785.00;;;6.15;nan
54936;BME280;40838;50.676;7.838;2022-11-30T03:14:49;98783.59;;;6.26;nan
54936;BME280;40838;50.676;7.838;2022-11-30T03:17:20;98787.22;;;6.18;nan
54936;BME280;40838;50.676;7.838;2022-11-30T03:19:48;98792.88;;;6.28;nan
54936;BME280;40838;50.676;7.838;2022-11-30T03:22:14;98797.31;;;6.28;nan
54936;BME280;40838;50.676;7.838;2022-11-30T03:24:41;98786.03;;;6.21;nan
54936;BME280;40838;50.676;7.838;2022-11-30T03:27:08;98793.72;;;6.29;nan
54936;BME280;40838;50.676;7.838;2022-11-30T03:29:36;98794.06;;;6.26;nan
54936;BME280;40838;50.676;7.838;2022-11-30T03:32:04;98786.44;;;6.31;nan
54936;BME280;40838;50.676;7.838;2022-11-30T03:34:33;98797.72;;;6.31;nan
54936;BME280;40838;50.676;7.838;2022-11-30T03:37:02;98788.84;;;6.26;nan
54936;BME280;40838;50.676;7.838;2022-11-30T03:39:29;98790.47;;;6.27;nan
54936;BME280;40838;50.676;7.838;2022-11-30T03:41:56;98792.28;;;6.46;nan
54936;BME280;40838;50.676;7.838;2022-11-30T03:44:23;98785.00;;;6.28;nan
54936;BME280;40838;50.676;7.838;2022-11-30T03:46:50;98796.31;;;6.29;nan
54936;BME280;40838;50.676;7.838;2022-11-30T03:49:17;98788.25;;;6.24;nan
54936;BME280;40838;50.676;7.838;2022-11-30T03:51:45;98784.78;;;6.17;nan
54936;BME280;40838;50.676;7.838;2022-11-30T03:54:12;98794.13;;;6.32;nan
54936;BME280;40838;50.676;7.838;2022-11-30T03:56:39;98788.03;;;6.19;nan
54936;BME280;40838;50.676;7.838;2022-11-30T03:59:06;98786.22;;;6.26;nan
54936;BME280;40838;50.676;7.838;2022-11-30T04:01:33;98791.28;;;6.27;nan
54936;BME280;40838;50.676;7.838;2022-11-30T04:04:01;98787.63;;;6.22;nan
54936;BME280;40838;50.676;7.838;2022-11-30T04:06:28;98790.25;;;6.28;nan
54936;BME280;40838;50.676;7.838;2022-11-30T04:08:59;98792.88;;;6.15;nan
54936;BME280;40838;50.676;7.838;2022-11-30T04:11:26;98780.56;;;6.09;nan
54936;BME280;40838;50.676;7.838;2022-11-30T04:13:53;98791.03;;;6.16;nan
54936;BME280;40838;50.676;7.838;2022-11-30T04:16:20;98786.03;;;6.21;nan
54936;BME280;40838;50.676;7.838;2022-11-30T04:18:47;98781.97;;;6.18;nan
54936;BME280;40838;50.676;7.838;2022-11-30T04:21:14;98782.59;;;6.27;nan
54936;BME280;40838;50.676;7.838;2022-11-30T04:23:41;98783.19;;;6.22;nan
54936;BME280;40838;50.676;7.838;2022-11-30T04:26:12;98781.19;;;6.24;nan
54936;BME280;40838;50.676;7.838;2022-11-30T04:28:40;98787.44;;;6.23;nan
54936;BME280;40838;50.676;7.838;2022-11-30T04:31:08;98778.16;;;6.27;nan
54936;BME280;40838;50.676;7.838;2022-11-30T04:33:35;98779.38;;;6.18;nan
54936;BME280;40838;50.676;7.838;2022-11-30T04:36:04;98774.75;;;6.20;nan
54936;BME280;40838;50.676;7.838;2022-11-30T04:38:32;98779.75;;;6.22;nan
54936;BME280;40838;50.676;7.838;2022-11-30T04:41:05;98786.81;;;6.21;nan
54936;BME280;40838;50.676;7.838;2022-11-30T04:43:36;98780.34;;;6.17;nan
54936;BME280;40838;50.676;7.838;2022-11-30T04:46:04;98783.81;;;6.18;nan
54936;BME280;40838;50.676;7.838;2022-11-30T04:48:32;98786.44;;;6.31;nan
54936;BME280;40838;50.676;7.838;2022-11-30T04:51:00;98784.59;;;6.18;nan
54936;BME280;40838;50.676;7.838;2022-11-30T04:53:29;98788.00;;;6.12;nan
54936;BME280;40838;50.676;7.838;2022-11-30T04:55:56;98785.22;;;6.20;nan
54936;BME280;40838;50.676;7.838;2022-11-30T04:58:23;98799.34;;;6.32;nan
54936;BME280;40838;50.676;7.838;2022-11-30T05:00:53;98798.94;;;6.29;nan
54936;BME280;40838;50.676;7.838;2022-11-30T05:03:22;98798.94;;;6.29;nan
54936;BME280;40838;50.676;7.838;2022-11-30T05:05:49;98804.38;;;6.34;nan
54936;BME280;40838;50.676;7.838;2022-11-30T05:08:16;98802.56;;;6.28;nan
54936;BME280;40838;50.676;7.838;2022-11-30T05:10:43;98796.13;;;6.30;nan
54936;BME280;40838;50.676;7.838;2022-11-30T05:13:10;98801.13;;;6.25;nan
54936;BME280;40838;50.676;7.838;2022-11-30T05:15:37;98798.56;;;6.39;nan
54936;BME280;40838;50.676;7.838;2022-11-30T05:18:06;98792.88;;;6.22;nan
54936;BME280;40838;50.676;7.838;2022-11-30T05:20:33;98796.13;;;6.30;nan
54936;BME280;40838;50.676;7.838;2022-11-30T05:23:00;98800.34;;;6.31;nan
54936;BME280;40838;50.676;7.838;2022-11-30T05:25:27;98783.41;;;6.27;nan
54936;BME280;40838;50.676;7.838;2022-11-30T05:27:54;98792.06;;;6.15;nan
54936;BME280;40838;50.676;7.838;2022-11-30T05:30:21;98797.94;;;6.23;nan
54936;BME280;40838;50.676;7.838;2022-11-30T05:32:48;98801.53;;;6.22;nan
54936;BME280;40838;50.676;7.838;2022-11-30T05:35:18;98801.31;;;6.17;nan
54936;BME280;40838;50.676;7.838;2022-11-30T05:37:45;98792.88;;;6.22;nan
54936;BME280;40838;50.676;7.838;2022-11-30T05:40:12;98799.72;;;6.23;nan
54936;BME280;40838;50.676;7.838;2022-11-30T05:42:39;98807.16;;;6.06;nan
54936;BME280;40838;50.676;7.838;2022-11-30T05:45:07;98811.59;;;6.12;nan
54936;BME280;40838;50.676;7.838;2022-11-30T05:47:34;98806.31;;;6.05;nan
54936;BME280;40838;50.676;7.838;2022-11-30T05:50:02;98818.19;;;5.95;nan
54936;BME280;40838;50.676;7.838;2022-11-30T05:52:32;98811.75;;;5.97;nan
54936;BME280;40838;50.676;7.838;2022-11-30T05:54:58;98814.81;;;6.14;nan
54936;BME280;40838;50.676;7.838;2022-11-30T05:57:25;98820.81;;;6.01;nan
54936;BME280;40838;50.676;7.838;2022-11-30T05:59:52;98828.88;;;6.00;nan
54936;BME280;40838;50.676;7.838;2022-11-30T06:02:19;98825.66;;;5.98;nan
54936;BME280;40838;50.676;7.838;2022-11-30T06:04:46;98823.44;;;6.01;nan
54936;BME280;40838;50.676;7.838;2022-11-30T06:07:13;98828.06;;;5.99;nan
54936;BME280;40838;50.676;7.838;2022-11-30T06:09:43;98827.91;;;6.07;nan
54936;BME280;40838;50.676;7.838;2022-11-30T06:12:10;98830.28;;;6.02;nan
54936;BME280;40838;50.676;7.838;2022-11-30T06:14:37;98833.31;;;5.99;nan
54936;BME280;40838;50.676;7.838;2022-11-30T06:17:04;98825.53;;;5.78;nan
54936;BME280;40838;50.676;7.838;2022-11-30T06:19:31;98825.94;;;5.81;nan
54936;BME280;40838;50.676;7.838;2022-11-30T06:21:58;98819.28;;;5.79;nan
54936;BME280;40838;50.676;7.838;2022-11-30T06:24:26;98826.22;;;5.93;nan
54936;BME280;40838;50.676;7.838;2022-11-30T06:26:54;98814.91;;;5.93;nan
54936;BME280;40838;50.676;7.838;2022-11-30T06:29:21;98822.66;;;6.07;nan
54936;BME280;40838;50.676;7.838;2022-11-30T06:31:48;98825.88;;;6.03;nan
54936;BME280;40838;50.676;7.838;2022-11-30T06:34:15;98823.16;;;5.89;nan
54936;BME280;40838;50.676;7.838;2022-11-30T06:36:42;98836.34;;;6.03;nan
54936;BME280;40838;50.676;7.838;2022-11-30T06:39:09;98831.13;;;6.03;nan
54936;BME280;40838;50.676;7.838;2022-11-30T06:41:36;98830.53;;;6.14;nan
54936;BME280;40838;50.676;7.838;2022-11-30T06:44:08;98839.81;;;6.17;nan
54936;BME280;40838;50.676;7.838;2022-11-30T06:46:35;98829.88;;;6.05;nan
54936;BME280;40838;50.676;7.838;2022-11-30T06:49:02;98833.69;;;5.96;nan
54936;BME280;40838;50.676;7.838;2022-11-30T06:51:29;98838.75;;;5.98;nan
54936;BME280;40838;50.676;7.838;2022-11-30T06:53:56;98835.72;;;5.94;nan
54936;BME280;40838;50.676;7.838;2022-11-30T06:56:23;98842.91;;;5.92;nan
54936;BME280;40838;50.676;7.838;2022-11-30T06:58:51;98844.78;;;5.98;nan
54936;BME280;40838;50.676;7.838;2022-11-30T07:01:20;98844.78;;;5.98;nan
54936;BME280;40838;50.676;7.838;2022-11-30T07:03:47;98843.38;;;6.02;nan
54936;BME280;40838;50.676;7.838;2022-11-30T07:06:15;98844.81;;;6.05;nan
54936;BME280;40838;50.676;7.838;2022-11-30T07:08:43;98843.38;;;6.02;nan
54936;BME280;40838;50.676;7.838;2022-11-30T07:11:10;98856.34;;;6.17;nan
54936;BME280;40838;50.676;7.838;2022-11-30T07:13:38;98852.28;;;6.08;nan
54936;BME280;40838;50.676;7.838;2022-11-30T07:16:06;98852.91;;;6.10;nan
54936;BME280;40838;50.676;7.838;2022-11-30T07:18:35;98848.63;;;6.02;nan
54936;BME280;40838;50.676;7.838;2022-11-30T07:21:03;98849.06;;;6.06;nan
54936;BME280;40838;50.676;7.838;2022-11-30T07:23:30;98856.06;;;5.99;nan
54936;BME280;40838;50.676;7.838;2022-11-30T07:26:15;98858.53;;;6.07;nan
54936;BME280;40838;50.676;7.838;2022-11-30T07:28:43;98851.25;;;6.02;nan
54936;BME280;40838;50.676;7.838;2022-11-30T07:31:14;98855.13;;;6.20;nan
54936;BME280;40838;50.676;7.838;2022-11-30T07:33:43;98855.28;;;6.05;nan
54936;BME280;40838;50.676;7.838;2022-11-30T07:36:10;98854.09;;;6.07;nan
54936;BME280;40838;50.676;7.838;2022-11-30T07:38:39;98857.50;;;6.01;nan
54936;BME280;40838;50.676;7.838;2022-11-30T07:41:06;98862.97;;;6.13;nan
54936;BME280;40838;50.676;7.838;2022-11-30T07:43:33;98865.41;;;6.15;nan
54936;BME280;40838;50.676;7.838;2022-11-30T07:46:01;98867.03;;;6.16;nan
54936;BME280;40838;50.676;7.838;2022-11-30T07:48:28;98866.44;;;6.20;nan
54936;BME280;40838;50.676;7.838;2022-11-30T07:51:02;98868.53;;;6.38;nan
54936;BME280;40838;50.676;7.838;2022-11-30T07:53:32;98874.75;;;6.37;nan
54936;BME280;40838;50.676;7.838;2022-11-30T07:56:03;98878.16;;;6.31;nan
54936;BME280;40838;50.676;7.838;2022-11-30T07:58:31;98873.94;;;6.36;nan
54936;BME280;40838;50.676;7.838;2022-11-30T08:01:02;98881.19;;;6.28;nan
54936;BME280;40838;50.676;7.838;2022-11-30T08:03:30;98869.72;;;6.29;nan
54936;BME280;40838;50.676;7.838;2022-11-30T08:06:04;98875.94;;;6.34;nan
54936;BME280;40838;50.676;7.838;2022-11-30T08:08:34;98876.16;;;6.33;nan
54936;BME280;40838;50.676;7.838;2022-11-30T08:11:02;98882.81;;;6.29;nan
54936;BME280;40838;50.676;7.838;2022-11-30T08:13:29;98883.97;;;6.20;nan
54936;BME280;40838;50.676;7.838;2022-11-30T08:16:00;98872.75;;;6.32;nan
54936;BME280;40838;50.676;7.838;2022-11-30T08:18:27;98880.59;;;6.32;nan
54936;BME280;40838;50.676;7.838;2022-11-30T08:20:56;98892.50;;;6.35;nan
54936;BME280;40838;50.676;7.838;2022-11-30T08:23:26;98883.41;;;6.31;nan
54936;BME280;40838;50.676;7.838;2022-11-30T08:25:53;98879.19;;;6.36;nan
54936;BME280;40838;50.676;7.838;2022-11-30T08:28:20;98874.75;;;6.37;nan
54936;BME280;40838;50.676;7.838;2022-11-30T08:30:47;98880.38;;;6.34;nan
54936;BME280;40838;50.676;7.838;2022-11-30T08:33:14;98881.00;;;6.36;nan
54936;BME280;40838;50.676;7.838;2022-11-30T08:35:41;98888.25;;;6.34;nan
54936;BME280;40838;50.676;7.838;2022-11-30T08:38:08;98886.97;;;6.17;nan
54936;BME280;40838;50.676;7.838;2022-11-30T08:40:36;98888.88;;;6.36;nan
54936;BME280;40838;50.676;7.838;2022-11-30T08:43:03;98884.81;;;6.27;nan
54936;BME280;40838;50.676;7.838;2022-11-30T08:45:30;98883.63;;;6.36;nan
54936;BME280;40838;50.676;7.838;2022-11-30T08:47:57;98884.44;;;6.43;nan
54936;BME280;40838;50.676;7.838;2022-11-30T08:50:24;98891.72;;;6.48;nan
54936;BME280;40838;50.676;7.838;2022-11-30T08:52:52;98891.97;;;6.59;nan
54936;BME280;40838;50.676;7.838;2022-11-30T08:55:19;98894.16;;;6.49;nan
54936;BME280;40838;50.676;7.838;2022-11-30T08:57:47;98903.81;;;6.42;nan
54936;BME280;40838;50.676;7.838;2022-11-30T09:00:15;98897.13;;;6.33;nan
54936;BME280;40838;50.676;7.838;2022-11-30T09:02:44;98896.16;;;6.41;nan
54936;BME280;40838;50.676;7.838;2022-11-30T09:05:11;98900.22;;;6.50;nan
54936;BME280;40838;50.676;7.838;2022-11-30T09:07:40;98907.13;;;6.64;nan
54936;BME280;40838;50.676;7.838;2022-11-30T09:10:07;98899.03;;;6.66;nan
54936;BME280;40838;50.676;7.838;2022-11-30T09:12:36;98908.31;;;6.62;nan
54936;BME280;40838;50.676;7.838;2022-11-30T09:15:07;98909.91;;;6.56;nan
54936;BME280;40838;50.676;7.838;2022-11-30T09:17:34;98911.13;;;6.60;nan
54936;BME280;40838;50.676;7.838;2022-11-30T09:20:02;98906.50;;;6.55;nan
54936;BME280;40838;50.676;7.838;2022-11-30T09:22:29;98905.41;;;6.43;nan
54936;BME280;40838;50.676;7.838;2022-11-30T09:24:56;98906.44;;;6.49;nan
54936;BME280;40838;50.676;7.838;2022-11-30T09:27:23;98899.25;;;6.64;nan
54936;BME280;40838;50.676;7.838;2022-11-30T09:29:54;98906.25;;;6.50;nan
54936;BME280;40838;50.676;7.838;2022-11-30T09:32:23;98903.03;;;6.55;nan
54936;BME280;40838;50.676;7.838;2022-11-30T09:34:50;98904.84;;;6.54;nan
54936;BME280;40838;50.676;7.838;2022-11-30T09:37:17;98914.75;;;6.52;nan
54936;BME280;40838;50.676;7.838;2022-11-30T09:39:44;98899.59;;;6.54;nan
54936;BME280;40838;50.676;7.838;2022-11-30T09:42:30;98908.09;;;6.56;nan
54936;BME280;40838;50.676;7.838;2022-11-30T09:45:04;98907.94;;;6.71;nan
54936;BME280;40838;50.676;7.838;2022-11-30T09:47:43;98898.03;;;6.67;nan
54936;BME280;40838;50.676;7.838;2022-11-30T09:50:20;98902.69;;;6.71;nan
54936;BME280;40838;50.676;7.838;2022-11-30T09:52:50;98906.28;;;6.64;nan
54936;BME280;40838;50.676;7.838;2022-11-30T09:55:23;98906.91;;;6.66;nan
54936;BME280;40838;50.676;7.838;2022-11-30T09:57:54;98904.28;;;6.59;nan
54936;BME280;40838;50.676;7.838;2022-11-30T10:00:23;98911.66;;;6.29;nan
54936;BME280;40838;50.676;7.838;2022-11-30T10:02:54;98907.44;;;6.41;nan
54936;BME280;40838;50.676;7.838;2022-11-30T10:05:26;98909.78;;;6.23;nan
54936;BME280;40838;50.676;7.838;2022-11-30T10:08:07;98915.47;;;6.33;nan
54936;BME280;40838;50.676;7.838;2022-11-30T10:10:40;98902.38;;;6.40;nan
54936;BME280;40838;50.676;7.838;2022-11-30T10:13:21;98913.66;;;6.33;nan
54936;BME280;40838;50.676;7.838;2022-11-30T10:16:01;98913.13;;;6.51;nan
54936;BME280;40838;50.676;7.838;2022-11-30T10:18:42;98905.88;;;6.53;nan
54936;BME280;40838;50.676;7.838;2022-11-30T10:21:25;98915.38;;;6.68;nan
54936;BME280;40838;50.676;7.838;2022-11-30T10:24:19;98907.53;;;6.81;nan
54936;BME280;40838;50.676;7.838;2022-11-30T10:26:53;98900.69;;;6.73;nan
54936;BME280;40838;50.676;7.838;2022-11-30T10:29:27;98900.66;;;6.67;nan
54936;BME280;40838;50.676;7.838;2022-11-30T10:31:56;98909.50;;;6.52;nan
54936;BME280;40838;50.676;7.838;2022-11-30T10:34:31;98908.09;;;6.50;nan
54936;BME280;40838;50.676;7.838;2022-11-30T10:37:02;98911.69;;;6.49;nan
54936;BME280;40838;50.676;7.838;2022-11-30T10:39:36;98903.88;;;6.62;nan
54936;BME280;40838;50.676;7.838;2022-11-30T10:42:11;98899.84;;;6.66;nan
54936;BME280;40838;50.676;7.838;2022-11-30T10:44:43;98895.78;;;6.64;nan
54936;BME280;40838;50.676;7.838;2022-11-30T10:47:16;98895.22;;;6.62;nan
54936;BME280;40838;50.676;7.838;2022-11-30T10:49:48;98897.44;;;6.78;nan
54936;BME280;40838;50.676;7.838;2022-11-30T10:52:19;98902.63;;;6.58;nan
54936;BME280;40838;50.676;7.838;2022-11-30T10:54:48;98906.34;;;6.84;nan
54936;BME280;40838;50.676;7.838;2022-11-30T10:57:18;98896.25;;;6.87;nan
54936;BME280;40838;50.676;7.838;2022-11-30T10:59:48;98900.09;;;6.85;nan
54936;BME280;40838;50.676;7.838;2022-11-30T11:02:40;98896.25;;;6.87;nan
54936;BME280;40838;50.676;7.838;2022-11-30T11:05:20;98894.25;;;6.89;nan
54936;BME280;40838;50.676;7.838;2022-11-30T11:07:50;98896.06;;;6.95;nan
54936;BME280;40838;50.676;7.838;2022-11-30T11:10:23;98888.78;;;6.71;nan
54936;BME280;40838;50.676;7.838;2022-11-30T11:12:52;98891.00;;;6.74;nan
54936;BME280;40838;50.676;7.838;2022-11-30T11:15:21;98894.22;;;6.76;nan
54936;BME280;40838;50.676;7.838;2022-11-30T11:17:50;98893.66;;;6.94;nan
54936;BME280;40838;50.676;7.838;2022-11-30T11:20:33;98899.25;;;6.84;nan
54936;BME280;40838;50.676;7.838;2022-11-30T11:23:01;98897.06;;;6.88;nan
54936;BME280;40838;50.676;7.838;2022-11-30T11:25:33;98892.41;;;6.83;nan
54936;BME280;40838;50.676;7.838;2022-11-30T11:28:04;98886.38;;;6.96;nan
54936;BME280;40838;50.676;7.838;2022-11-30T11:30:34;98890.63;;;7.03;nan
54936;BME280;40838;50.676;7.838;2022-11-30T11:33:04;98885.16;;;6.98;nan
54936;BME280;40838;50.676;7.838;2022-11-30T11:35:44;98886.38;;;6.89;nan
54936;BME280;40838;50.676;7.838;2022-11-30T11:38:24;98882.13;;;6.88;nan
54936;BME280;40838;50.676;7.838;2022-11-30T11:40:57;98887.34;;;6.75;nan
54936;BME280;40838;50.676;7.838;2022-11-30T11:43:27;98887.78;;;6.92;nan
54936;BME280;40838;50.676;7.838;2022-11-30T11:45:58;98883.97;;;7.01;nan
54936;BME280;40838;50.676;7.838;2022-11-30T11:48:32;98888.00;;;7.10;nan
54936;BME280;40838;50.676;7.838;2022-11-30T11:51:06;98884.16;;;7.13;nan
54936;BME280;40838;50.676;7.838;2022-11-30T11:53:38;98883.56;;;7.24;nan
54936;BME280;40838;50.676;7.838;2022-11-30T11:56:11;98884.34;;;7.31;nan
54936;BME280;40838;50.676;7.838;2022-11-30T11:59:06;98895.66;;;7.45;nan
54936;BME280;40838;50.676;7.838;2022-11-30T12:01:51;98891.81;;;7.47;nan
54936;BME280;40838;50.676;7.838;2022-11-30T12:04:35;98886.78;;;7.53;nan
54936;BME280;40838;50.676;7.838;2022-11-30T12:07:13;98890.00;;;7.55;nan
54936;BME280;40838;50.676;7.838;2022-11-30T12:09:52;98894.22;;;7.62;nan
54936;BME280;40838;50.676;7.838;2022-11-30T12:12:20;98890.78;;;7.62;nan
54936;BME280;40838;50.676;7.838;2022-11-30T12:14:47;98887.38;;;7.55;nan
54936;BME280;40838;50.676;7.838;2022-11-30T12:17:25;98895.47;;;7.13;nan
54936;BME280;40838;50.676;7.838;2022-11-30T12:19:59;98890.63;;;7.30;nan
54936;BME280;40838;50.676;7.838;2022-11-30T12:22:47;98891.03;;;7.47;nan
54936;BME280;40838;50.676;7.838;2022-11-30T12:25:22;98887.00;;;7.24;nan
54936;BME280;40838;50.676;7.838;2022-11-30T12:28:18;98889.00;;;7.09;nan
54936;BME280;40838;50.676;7.838;2022-11-30T12:31:09;98887.00;;;7.18;nan
54936;BME280;40838;50.676;7.838;2022-11-30T12:33:53;98879.31;;;7.10;nan
54936;BME280;40838;50.676;7.838;2022-11-30T12:36:37;98890.84;;;7.29;nan
54936;BME280;40838;50.676;7.838;2022-11-30T12:39:28;98883.75;;;7.16;nan
54936;BME280;40838;50.676;7.838;2022-11-30T12:42:06;98885.78;;;7.27;nan
54936;BME280;40838;50.676;7.838;2022-11-30T12:44:48;98879.94;;;7.12;nan
54936;BME280;40838;50.676;7.838;2022-11-30T12:48:05;98883.56;;;7.17;nan
54936;BME280;40838;50.676;7.838;2022-11-30T12:50:44;98888.59;;;7.12;nan
54936;BME280;40838;50.676;7.838;2022-11-30T12:53:19;98891.41;;;7.11;nan
54936;BME280;40838;50.676;7.838;2022-11-30T12:55:58;98894.66;;;7.13;nan
54936;BME280;40838;50.676;7.838;2022-11-30T12:58:35;98896.84;;;6.89;nan
54936;BME280;40838;50.676;7.838;2022-11-30T13:01:19;98901.88;;;6.77;nan
54936;BME280;40838;50.676;7.838;2022-11-30T13:03:57;98901.47;;;6.74;nan
54936;BME280;40838;50.676;7.838;2022-11-30T13:06:29;98904.50;;;6.71;nan
54936;BME280;40838;50.676;7.838;2022-11-30T13:09:00;98894.63;;;6.73;nan
54936;BME280;40838;50.676;7.838;2022-11-30T13:11:33;98902.50;;;6.79;nan
54936;BME280;40838;50.676;7.838;2022-11-30T13:14:07;98898.47;;;6.84;nan
54936;BME280;40838;50.676;7.838;2022-11-30T13:16:38;98901.31;;;6.89;nan
54936;BME280;40838;50.676;7.838;2022-11-30T13:19:17;98899.09;;;6.99;nan
54936;BME280;40838;50.676;7.838;2022-11-30T13:21:52;98895.84;;;6.90;nan
54936;BME280;40838;50.676;7.838;2022-11-30T13:24:23;98896.84;;;6.96;nan
54936;BME280;40838;50.676;7.838;2022-11-30T13:26:59;98901.91;;;6.91;nan
54936;BME280;40838;50.676;7.838;2022-11-30T13:29:50;98902.91;;;6.83;nan
54936;BME280;40838;50.676;7.838;2022-11-30T13:32:27;98891.78;;;6.68;nan
54936;BME280;40838;50.676;7.838;2022-11-30T13:38:00;98900.09;;;6.85;nan
54936;BME280;40838;50.676;7.838;2022-11-30T13:40:27;98895.44;;;6.73;nan
54936;BME280;40838;50.676;7.838;2022-11-30T13:42:57;98904.50;;;6.84;nan
54936;BME280;40838;50.676;7.838;2022-11-30T13:45:30;98899.88;;;6.93;nan
54936;BME280;40838;50.676;7.838;2022-11-30T13:48:15;98895.06;;;6.96;nan
54936;BME280;40838;50.676;7.838;2022-11-30T13:50:45;98894.66;;;6.99;nan
54936;BME280;40838;50.676;7.838;2022-11-30T13:53:25;98901.13;;;7.03;nan
54936;BME280;40838;50.676;7.838;2022-11-30T13:55:58;98898.09;;;7.07;nan
54936;BME280;40838;50.676;7.838;2022-11-30T13:58:28;98896.28;;;7.07;nan
54936;BME280;40838;50.676;7.838;2022-11-30T14:07:01;98895.44;;;6.80;nan